Time,TemperatureF,DewpointF,PressureIn,WindDirection,WindDirectionDegrees,WindSpeedMPH,WindSpeedGustMPH,Humidity,HourlyPrecipIn,Conditions,Clouds,dailyrainin,SoftwareType,DateUTC
2013-07-20 00:02:00,74.5,64.9,29.81,WNW,292,0.0,0.0,72,0.00,,,0.00,WUHU21023XXSP,2013-07-20 05:02:00,
2013-07-20 00:08:00,74.1,64.9,29.81,WNW,292,0.0,0.0,73,0.00,,,0.00,WUHU21023XXSP,2013-07-20 05:08:00,
2013-07-20 00:14:00,73.8,64.6,29.81,WNW,292,0.0,0.0,73,0.00,,,0.00,WUHU21023XXSP,2013-07-20 05:14:00,
2013-07-20 00:21:00,73.4,64.7,29.81,WNW,292,0.0,0.0,74,0.00,,,0.00,WUHU21023XXSP,2013-07-20 05:21:00,
2013-07-20 00:27:00,73.0,64.3,29.81,WNW,292,0.0,0.0,74,0.00,,,0.00,WUHU21023XXSP,2013-07-20 05:27:00,
2013-07-20 00:34:00,72.9,64.1,29.81,WNW,292,0.0,0.0,74,0.00,,,0.00,WUHU21023XXSP,2013-07-20 05:34:00,
2013-07-20 00:40:00,72.5,63.8,29.81,WNW,292,0.0,0.0,74,0.00,,,0.00,WUHU21023XXSP,2013-07-20 05:40:00,
2013-07-20 00:46:00,72.5,63.8,29.81,WNW,292,0.0,0.0,74,0.00,,,0.00,WUHU21023XXSP,2013-07-20 05:46:00,
2013-07-20 00:53:00,72.3,64.0,29.81,WNW,292,0.0,0.0,75,0.00,,,0.00,WUHU21023XXSP,2013-07-20 05:53:00,
2013-07-20 00:59:00,72.3,64.0,29.80,WNW,292,0.0,0.0,75,0.00,,,0.00,WUHU21023XXSP,2013-07-20 05:59:00,
2013-07-20 01:06:00,72.0,63.6,29.80,WNW,292,0.0,0.0,75,0.00,,,0.00,WUHU21023XXSP,2013-07-20 06:06:00,
2013-07-20 01:12:00,71.8,63.4,29.81,WNW,292,0.0,0.0,75,0.00,,,0.00,WUHU21023XXSP,2013-07-20 06:12:00,
2013-07-20 01:19:00,71.4,63.0,29.81,WNW,292,0.0,0.0,75,0.00,,,0.00,WUHU21023XXSP,2013-07-20 06:19:00,
2013-07-20 01:25:00,71.2,62.9,29.81,WNW,292,0.0,0.0,75,0.00,,,0.00,WUHU21023XXSP,2013-07-20 06:25:00,
2013-07-20 01:31:00,71.1,62.7,29.81,WNW,292,0.0,0.0,75,0.00,,,0.00,WUHU21023XXSP,2013-07-20 06:31:00,
2013-07-20 01:38:00,70.9,62.5,29.81,WNW,292,0.0,0.0,75,0.00,,,0.00,WUHU21023XXSP,2013-07-20 06:38:00,
2013-07-20 01:44:00,70.5,62.2,29.81,WNW,292,0.0,0.0,75,0.00,,,0.00,WUHU21023XXSP,2013-07-20 06:44:00,
2013-07-20 01:51:00,70.3,62.3,29.81,WNW,292,0.0,0.0,76,0.00,,,0.00,WUHU21023XXSP,2013-07-20 06:51:00,
2013-07-20 01:57:00,70.0,62.0,29.81,WNW,292,0.0,0.0,76,0.00,,,0.00,WUHU21023XXSP,2013-07-20 06:57:00,
2013-07-20 02:03:00,69.8,61.8,29.81,WNW,292,0.0,0.0,76,0.00,,,0.00,WUHU21023XXSP,2013-07-20 07:03:00,
2013-07-20 02:10:00,69.8,61.8,29.81,WNW,292,0.0,0.0,76,0.00,,,0.00,WUHU21023XXSP,2013-07-20 07:10:00,
2013-07-20 02:16:00,69.8,61.8,29.81,WNW,292,0.0,0.0,76,0.00,,,0.00,WUHU21023XXSP,2013-07-20 07:16:00,
2013-07-20 02:23:00,69.6,61.6,29.81,WNW,292,0.0,0.0,76,0.00,,,0.00,WUHU21023XXSP,2013-07-20 07:23:00,
2013-07-20 02:29:00,69.6,61.6,29.81,WNW,292,0.0,0.0,76,0.00,,,0.00,WUHU21023XXSP,2013-07-20 07:29:00,
2013-07-20 02:36:00,69.4,61.5,29.82,WNW,292,0.0,0.0,76,0.00,,,0.00,WUHU21023XXSP,2013-07-20 07:36:00,
2013-07-20 02:42:00,69.3,61.7,29.81,WNW,292,0.0,0.0,77,0.00,,,0.00,WUHU21023XXSP,2013-07-20 07:42:00,
2013-07-20 02:48:00,69.3,61.7,29.81,WNW,292,0.0,0.0,77,0.00,,,0.00,WUHU21023XXSP,2013-07-20 07:48:00,
2013-07-20 02:55:00,69.3,61.7,29.82,WNW,292,0.0,0.0,77,0.00,,,0.00,WUHU21023XXSP,2013-07-20 07:55:00,
2013-07-20 03:01:00,69.3,61.3,29.82,West,270,0.0,0.0,76,0.00,,,0.00,WUHU21023XXSP,2013-07-20 08:01:00,
2013-07-20 03:08:00,69.1,61.2,29.82,WNW,292,0.0,0.0,76,0.00,,,0.00,WUHU21023XXSP,2013-07-20 08:08:00,
2013-07-20 03:14:00,69.1,61.2,29.82,WNW,292,0.0,0.0,76,0.00,,,0.00,WUHU21023XXSP,2013-07-20 08:14:00,
2013-07-20 03:21:00,68.9,61.0,29.82,WNW,292,0.0,0.0,76,0.00,,,0.00,WUHU21023XXSP,2013-07-20 08:21:00,
2013-07-20 03:27:00,68.7,60.8,29.82,WNW,292,0.0,0.0,76,0.00,,,0.00,WUHU21023XXSP,2013-07-20 08:27:00,
2013-07-20 03:33:00,68.5,60.7,29.82,WNW,292,0.0,0.0,76,0.00,,,0.00,WUHU21023XXSP,2013-07-20 08:33:00,
2013-07-20 03:40:00,68.2,60.4,29.82,WNW,292,0.0,0.0,76,0.00,,,0.00,WUHU21023XXSP,2013-07-20 08:40:00,
2013-07-20 03:46:00,67.8,60.0,29.81,WNW,292,0.0,0.0,76,0.00,,,0.00,WUHU21023XXSP,2013-07-20 08:46:00,
2013-07-20 03:53:00,67.6,59.8,29.82,WNW,292,0.0,0.0,76,0.00,,,0.00,WUHU21023XXSP,2013-07-20 08:53:00,
2013-07-20 03:59:00,67.3,59.5,29.82,WNW,292,0.0,0.0,76,0.00,,,0.00,WUHU21023XXSP,2013-07-20 08:59:00,
2013-07-20 04:06:00,67.1,59.7,29.82,WNW,292,0.0,0.0,77,0.00,,,0.00,WUHU21023XXSP,2013-07-20 09:06:00,
2013-07-20 04:12:00,66.7,59.3,29.82,WNW,292,0.0,0.0,77,0.00,,,0.00,WUHU21023XXSP,2013-07-20 09:12:00,
2013-07-20 04:18:00,66.6,59.1,29.82,WNW,292,0.0,0.0,77,0.00,,,0.00,WUHU21023XXSP,2013-07-20 09:18:00,
2013-07-20 04:25:00,66.2,59.1,29.82,WNW,292,0.0,0.0,78,0.00,,,0.00,WUHU21023XXSP,2013-07-20 09:25:00,
2013-07-20 04:31:00,66.0,59.0,29.83,WNW,292,0.0,0.0,78,0.00,,,0.00,WUHU21023XXSP,2013-07-20 09:31:00,
2013-07-20 04:38:00,66.0,59.0,29.83,WNW,292,0.0,0.0,78,0.00,,,0.00,WUHU21023XXSP,2013-07-20 09:38:00,
2013-07-20 04:44:00,66.0,59.0,29.83,WNW,292,0.0,0.0,78,0.00,,,0.00,WUHU21023XXSP,2013-07-20 09:44:00,
2013-07-20 04:51:00,66.0,59.0,29.83,WNW,292,0.0,0.0,78,0.00,,,0.00,WUHU21023XXSP,2013-07-20 09:51:00,
2013-07-20 04:57:00,65.8,58.8,29.83,WNW,292,0.0,0.0,78,0.00,,,0.00,WUHU21023XXSP,2013-07-20 09:57:00,
2013-07-20 05:03:00,65.5,58.4,29.84,WNW,292,0.0,0.0,78,0.00,,,0.00,WUHU21023XXSP,2013-07-20 10:03:00,
2013-07-20 05:10:00,65.3,58.6,29.84,WNW,292,0.0,0.0,79,0.00,,,0.00,WUHU21023XXSP,2013-07-20 10:10:00,
2013-07-20 05:16:00,65.1,58.4,29.84,WNW,292,0.0,0.0,79,0.00,,,0.00,WUHU21023XXSP,2013-07-20 10:16:00,
2013-07-20 05:23:00,64.9,58.3,29.84,WNW,292,0.0,0.0,79,0.00,,,0.00,WUHU21023XXSP,2013-07-20 10:23:00,
2013-07-20 05:29:00,64.9,58.3,29.85,WNW,292,0.0,0.0,79,0.00,,,0.00,WUHU21023XXSP,2013-07-20 10:29:00,
2013-07-20 05:36:00,64.8,58.1,29.85,WNW,292,0.0,0.0,79,0.00,,,0.00,WUHU21023XXSP,2013-07-20 10:36:00,
2013-07-20 05:42:00,64.8,58.1,29.85,WNW,292,0.0,0.0,79,0.00,,,0.00,WUHU21023XXSP,2013-07-20 10:42:00,
2013-07-20 05:48:00,64.9,58.3,29.85,WNW,292,0.0,0.0,79,0.00,,,0.00,WUHU21023XXSP,2013-07-20 10:48:00,
2013-07-20 05:55:00,64.9,58.3,29.85,WNW,292,0.0,0.0,79,0.00,,,0.00,WUHU21023XXSP,2013-07-20 10:55:00,
2013-07-20 06:01:00,64.9,58.3,29.85,WNW,292,0.0,0.0,79,0.00,,,0.00,WUHU21023XXSP,2013-07-20 11:01:00,
2013-07-20 06:08:00,64.9,58.3,29.85,WNW,292,0.0,0.0,79,0.00,,,0.00,WUHU21023XXSP,2013-07-20 11:08:00,
2013-07-20 06:14:00,64.8,58.1,29.85,WNW,292,0.0,0.0,79,0.00,,,0.00,WUHU21023XXSP,2013-07-20 11:14:00,
2013-07-20 06:21:00,64.8,58.1,29.85,WNW,292,0.0,0.0,79,0.00,,,0.00,WUHU21023XXSP,2013-07-20 11:21:00,
2013-07-20 06:27:00,64.8,58.1,29.85,WNW,292,0.0,0.0,79,0.00,,,0.00,WUHU21023XXSP,2013-07-20 11:27:00,
2013-07-20 06:33:00,64.8,58.1,29.85,WNW,292,0.0,0.0,79,0.00,,,0.00,WUHU21023XXSP,2013-07-20 11:33:00,
2013-07-20 06:40:00,64.9,58.6,29.85,WNW,292,0.0,0.0,80,0.00,,,0.00,WUHU21023XXSP,2013-07-20 11:40:00,
2013-07-20 06:46:00,64.9,58.6,29.86,WNW,292,0.0,0.0,80,0.00,,,0.00,WUHU21023XXSP,2013-07-20 11:46:00,
2013-07-20 06:53:00,65.1,58.8,29.85,WNW,292,0.0,0.0,80,0.00,,,0.00,WUHU21023XXSP,2013-07-20 11:53:00,
2013-07-20 06:59:00,65.3,59.0,29.86,WNW,292,0.0,0.0,80,0.00,,,0.00,WUHU21023XXSP,2013-07-20 11:59:00,
2013-07-20 07:06:00,65.5,59.2,29.87,WNW,292,0.0,0.0,80,0.00,,,0.00,WUHU21023XXSP,2013-07-20 12:06:00,
2013-07-20 07:12:00,66.0,59.7,29.86,WNW,292,0.0,0.0,80,0.00,,,0.00,WUHU21023XXSP,2013-07-20 12:12:00,
2013-07-20 07:18:00,66.4,60.1,29.86,WNW,292,0.0,0.0,80,0.00,,,0.00,WUHU21023XXSP,2013-07-20 12:18:00,
2013-07-20 07:25:00,66.7,60.4,29.86,WNW,292,0.0,0.0,80,0.00,,,0.00,WUHU21023XXSP,2013-07-20 12:25:00,
2013-07-20 07:31:00,67.3,60.6,29.86,WNW,292,0.0,0.0,79,0.00,,,0.00,WUHU21023XXSP,2013-07-20 12:31:00,
2013-07-20 07:38:00,67.8,61.1,29.86,WNW,292,0.0,0.0,79,0.00,,,0.00,WUHU21023XXSP,2013-07-20 12:38:00,
2013-07-20 07:44:00,68.2,61.5,29.86,WNW,292,0.0,0.0,79,0.00,,,0.00,WUHU21023XXSP,2013-07-20 12:44:00,
2013-07-20 07:51:00,68.7,61.6,29.87,WNW,292,0.0,0.0,78,0.00,,,0.00,WUHU21023XXSP,2013-07-20 12:51:00,
2013-07-20 07:57:00,69.1,61.9,29.87,WNW,292,0.0,0.0,78,0.00,,,0.00,WUHU21023XXSP,2013-07-20 12:57:00,
2013-07-20 08:03:00,69.4,62.2,29.87,WNW,292,0.0,0.0,78,0.00,,,0.00,WUHU21023XXSP,2013-07-20 13:03:00,
2013-07-20 08:10:00,70.0,62.4,29.87,WNW,292,0.0,0.0,77,0.00,,,0.00,WUHU21023XXSP,2013-07-20 13:10:00,
2013-07-20 08:16:00,70.5,62.9,29.87,WNW,292,0.0,0.0,77,0.00,,,0.00,WUHU21023XXSP,2013-07-20 13:16:00,
2013-07-20 08:23:00,70.9,62.9,29.87,WNW,292,0.0,0.0,76,0.00,,,0.00,WUHU21023XXSP,2013-07-20 13:23:00,
2013-07-20 08:30:00,71.4,63.4,29.87,WNW,292,0.0,0.0,76,0.00,,,0.00,WUHU21023XXSP,2013-07-20 13:30:00,
2013-07-20 08:36:00,72.0,63.6,29.87,WNW,292,0.0,0.0,75,0.00,,,0.00,WUHU21023XXSP,2013-07-20 13:36:00,
2013-07-20 08:42:00,72.5,63.8,29.87,WNW,292,0.0,0.0,74,0.00,,,0.00,WUHU21023XXSP,2013-07-20 13:42:00,
2013-07-20 08:47:00,73.0,64.3,29.87,WNW,292,0.0,0.0,74,0.00,,,0.00,WUHU21023XXSP,2013-07-20 13:47:00,
2013-07-20 08:52:00,73.2,64.5,29.86,WNW,292,0.0,0.0,73,0.00,,,0.00,WUHU21023XXSP,2013-07-20 13:52:00,
2013-07-20 08:55:00,73.6,64.4,29.87,WNW,292,0.0,33.0,73,0.00,,,0.00,WUHU21023XXSP,2013-07-20 13:55:00,
2013-07-20 09:02:00,73.9,64.4,29.87,WNW,292,37.0,37.0,72,0.00,,,0.00,WUHU21023XXSP,2013-07-20 14:02:00,
2013-07-20 09:07:00,74.3,64.3,29.87,WNW,292,31.0,37.0,71,0.00,,,0.00,WUHU21023XXSP,2013-07-20 14:07:00,
2013-07-20 09:13:00,74.8,64.8,29.87,WNW,292,16.0,31.0,71,0.00,,,0.00,WUHU21023XXSP,2013-07-20 14:13:00,
2013-07-20 09:19:00,75.0,65.0,29.87,WNW,292,25.0,29.0,71,0.00,,,0.00,WUHU21023XXSP,2013-07-20 14:19:00,
2013-07-20 09:24:00,75.4,65.3,29.87,WNW,292,33.0,33.0,71,0.00,,,0.00,WUHU21023XXSP,2013-07-20 14:24:00,
2013-07-20 09:30:00,75.7,65.3,29.87,WNW,292,33.0,34.0,70,0.00,,,0.00,WUHU21023XXSP,2013-07-20 14:30:00,
2013-07-20 09:36:00,75.9,65.0,29.87,WNW,292,26.0,34.0,69,0.00,,,0.00,WUHU21023XXSP,2013-07-20 14:36:00,
2013-07-20 09:42:00,76.5,65.6,29.87,WNW,292,30.0,34.0,69,0.00,,,0.00,WUHU21023XXSP,2013-07-20 14:42:00,
2013-07-20 09:49:00,76.8,65.5,29.88,WNW,292,25.0,30.0,68,0.00,,,0.00,WUHU21023XXSP,2013-07-20 14:49:00,
2013-07-20 09:54:00,77.2,65.4,29.88,West,270,23.0,30.0,67,0.00,,,0.00,WUHU21023XXSP,2013-07-20 14:54:00,
2013-07-20 09:59:00,77.5,65.3,29.88,West,270,27.0,32.0,66,0.00,,,0.00,WUHU21023XXSP,2013-07-20 14:59:00,
2013-07-20 10:05:00,78.1,65.8,29.88,WNW,292,22.0,32.0,66,0.00,,,0.00,WUHU21023XXSP,2013-07-20 15:05:00,
2013-07-20 10:11:00,78.6,65.7,29.89,WNW,292,21.0,32.0,65,0.00,,,0.00,WUHU21023XXSP,2013-07-20 15:11:00,
2013-07-20 10:17:00,79.3,66.1,29.89,WNW,292,34.0,34.0,64,0.00,,,0.00,WUHU21023XXSP,2013-07-20 15:17:00,
2013-07-20 10:22:00,79.7,66.0,29.88,WNW,292,30.0,34.0,63,0.00,,,0.00,WUHU21023XXSP,2013-07-20 15:22:00,
2013-07-20 10:28:00,80.2,65.9,29.88,WNW,292,27.0,31.0,61,0.00,,,0.00,WUHU21023XXSP,2013-07-20 15:28:00,
2013-07-20 10:33:00,80.4,65.8,29.89,WNW,292,31.0,31.0,61,0.00,,,0.00,WUHU21023XXSP,2013-07-20 15:33:00,
2013-07-20 10:40:00,80.8,65.6,29.88,NW,315,21.0,31.0,60,0.00,,,0.00,WUHU21023XXSP,2013-07-20 15:40:00,
2013-07-20 10:46:00,81.0,65.8,29.89,NW,315,32.0,32.0,60,0.00,,,0.00,WUHU21023XXSP,2013-07-20 15:46:00,
2013-07-20 10:52:00,81.1,65.4,29.89,NNW,337,32.0,32.0,59,0.00,,,0.00,WUHU21023XXSP,2013-07-20 15:52:00,
2013-07-20 10:58:00,81.3,65.6,29.89,WNW,292,32.0,32.0,59,0.00,,,0.00,WUHU21023XXSP,2013-07-20 15:58:00,
2013-07-20 11:05:00,81.7,65.9,29.89,WNW,292,26.0,32.0,59,0.00,,,0.00,WUHU21023XXSP,2013-07-20 16:05:00,
2013-07-20 11:10:00,82.0,65.7,29.89,NW,315,31.0,31.0,58,0.00,,,0.00,WUHU21023XXSP,2013-07-20 16:10:00,
2013-07-20 11:16:00,82.2,65.4,29.89,NE,45,21.0,31.0,57,0.00,,,0.00,WUHU21023XXSP,2013-07-20 16:16:00,
2013-07-20 11:21:00,82.6,65.2,29.89,NE,45,28.0,31.0,56,0.00,,,0.00,WUHU21023XXSP,2013-07-20 16:21:00,
2013-07-20 11:26:00,82.8,65.4,29.90,NE,45,22.0,31.0,56,0.00,,,0.00,WUHU21023XXSP,2013-07-20 16:26:00,
2013-07-20 11:32:00,82.9,65.0,29.89,WSW,247,30.0,35.0,55,0.00,,,0.00,WUHU21023XXSP,2013-07-20 16:32:00,
2013-07-20 11:39:00,83.1,65.7,29.90,ENE,67,0.0,35.0,56,0.00,,,0.00,WUHU21023XXSP,2013-07-20 16:39:00,
2013-07-20 11:45:00,83.1,65.7,29.89,NNE,22,21.0,27.0,56,0.00,,,0.00,WUHU21023XXSP,2013-07-20 16:45:00,
2013-07-20 11:52:00,83.1,65.7,29.89,NNE,22,0.0,23.0,55,0.00,,,0.00,WUHU21023XXSP,2013-07-20 16:52:00,
2013-07-20 11:58:00,83.3,65.4,29.89,WSW,247,25.0,30.0,55,0.00,,,0.00,WUHU21023XXSP,2013-07-20 16:58:00,
2013-07-20 12:03:00,83.1,65.2,29.89,NNW,337,29.0,30.0,55,0.00,,,0.00,WUHU21023XXSP,2013-07-20 17:03:00,
2013-07-20 12:10:00,83.3,65.4,29.89,NNE,22,0.0,33.0,54,0.00,,,0.00,WUHU21023XXSP,2013-07-20 17:10:00,
2013-07-20 12:16:00,83.3,64.9,29.89,NW,315,0.0,0.0,54,0.00,,,0.00,WUHU21023XXSP,2013-07-20 17:16:00,
2013-07-20 12:23:00,83.5,64.5,29.88,WSW,247,0.0,0.0,53,0.00,,,0.00,WUHU21023XXSP,2013-07-20 17:23:00,
2013-07-20 12:29:00,83.1,64.7,29.89,WSW,247,0.0,0.0,54,0.00,,,0.00,WUHU21023XXSP,2013-07-20 17:29:00,
2013-07-20 12:40:00,82.9,64.5,29.89,WNW,292,8.0,8.0,54,0.00,,,0.00,WUHU21023XXSP,2013-07-20 17:40:00,
2013-07-20 12:46:00,82.6,63.1,29.89,WNW,292,0.0,8.0,52,0.00,,,0.00,WUHU21023XXSP,2013-07-20 17:46:00,
2013-07-20 12:53:00,82.6,63.6,29.88,NW,315,0.0,0.0,53,0.00,,,0.00,WUHU21023XXSP,2013-07-20 17:53:00,
2013-07-20 12:59:00,82.8,64.3,29.88,NW,315,0.0,0.0,54,0.00,,,0.00,WUHU21023XXSP,2013-07-20 17:59:00,
2013-07-20 13:06:00,82.9,64.5,29.87,NW,315,0.0,0.0,54,0.00,,,0.00,WUHU21023XXSP,2013-07-20 18:06:00,
2013-07-20 13:12:00,83.1,64.2,29.87,NNE,22,0.0,0.0,53,0.00,,,0.00,WUHU21023XXSP,2013-07-20 18:12:00,
2013-07-20 13:18:00,83.5,65.0,29.88,NNE,22,0.0,0.0,54,0.00,,,0.00,WUHU21023XXSP,2013-07-20 18:18:00,
2013-07-20 13:31:00,83.3,63.8,29.87,South,180,0.0,0.0,52,0.00,,,0.00,WUHU21023XXSP,2013-07-20 18:31:00,
2013-07-20 13:38:00,83.1,64.7,29.87,NW,315,21.0,29.0,54,0.00,,,0.00,WUHU21023XXSP,2013-07-20 18:38:00,
2013-07-20 13:44:00,83.1,65.2,29.87,NW,315,0.0,29.0,55,0.00,,,0.00,WUHU21023XXSP,2013-07-20 18:44:00,
2013-07-20 13:53:00,83.1,64.7,29.87,WSW,247,0.0,0.0,54,0.00,,,0.00,WUHU21023XXSP,2013-07-20 18:53:00,
2013-07-20 13:58:00,82.9,64.5,29.87,WSW,247,28.0,31.0,54,0.00,,,0.00,WUHU21023XXSP,2013-07-20 18:58:00,
2013-07-20 14:08:00,83.1,64.7,29.88,West,270,30.0,31.0,54,0.00,,,0.00,WUHU21023XXSP,2013-07-20 19:08:00,
2013-07-20 14:22:00,82.9,65.0,29.87,West,270,21.0,29.0,55,0.00,,,0.00,WUHU21023XXSP,2013-07-20 19:22:00,
2013-07-20 14:52:00,83.5,65.0,29.86,WSW,247,22.0,32.0,54,0.00,,,0.00,WUHU21023XXSP,2013-07-20 19:52:00,
2013-07-20 14:58:00,83.5,65.6,29.86,WSW,247,27.0,30.0,55,0.00,,,0.00,WUHU21023XXSP,2013-07-20 19:58:00,
2013-07-20 15:04:00,84.4,65.9,29.85,WSW,247,0.0,27.0,54,0.00,,,0.00,WUHU21023XXSP,2013-07-20 20:04:00,
2013-07-20 15:15:00,85.8,65.7,29.85,WSW,247,0.0,0.0,51,0.00,,,0.00,WUHU21023XXSP,2013-07-20 20:15:00,
2013-07-20 15:21:00,85.6,66.0,29.86,WNW,292,2.0,27.0,52,0.00,,,0.00,WUHU21023XXSP,2013-07-20 20:21:00,
2013-07-20 15:31:00,83.5,65.6,29.86,NE,45,10.0,26.0,55,0.00,,,0.00,WUHU21023XXSP,2013-07-20 20:31:00,
2013-07-20 15:37:00,82.0,65.2,29.86,NE,45,18.0,24.0,57,0.00,,,0.00,WUHU21023XXSP,2013-07-20 20:37:00,
2013-07-20 15:43:00,80.6,65.0,29.86,East,90,28.0,28.0,59,0.00,,,0.00,WUHU21023XXSP,2013-07-20 20:43:00,
2013-07-20 15:49:00,80.1,65.0,29.87,ENE,67,17.0,28.0,60,0.00,,,0.00,WUHU21023XXSP,2013-07-20 20:49:00,
2013-07-20 15:56:00,79.9,65.3,29.87,ESE,112,3.0,25.0,61,0.00,,,0.00,WUHU21023XXSP,2013-07-20 20:56:00,
2013-07-20 16:04:00,79.3,65.2,29.86,NNE,22,19.0,21.0,62,0.00,,,0.00,WUHU21023XXSP,2013-07-20 21:04:00,
2013-07-20 16:14:00,78.6,65.0,29.86,ENE,67,14.0,24.0,63,0.00,,,0.00,WUHU21023XXSP,2013-07-20 21:14:00,
2013-07-20 16:20:00,78.1,64.5,29.87,NNE,22,23.0,23.0,63,0.00,,,0.00,WUHU21023XXSP,2013-07-20 21:20:00,
2013-07-20 16:29:00,77.7,64.5,29.87,ESE,112,27.0,27.0,64,0.00,,,0.00,WUHU21023XXSP,2013-07-20 21:29:00,
2013-07-20 16:34:00,77.7,64.5,29.86,NNE,22,1.0,27.0,64,0.00,,,0.00,WUHU21023XXSP,2013-07-20 21:34:00,
2013-07-20 16:40:00,77.7,64.5,29.85,ESE,112,5.0,22.0,64,0.00,,,0.00,WUHU21023XXSP,2013-07-20 21:40:00,
2013-07-20 16:47:00,77.9,64.7,29.86,ENE,67,7.0,21.0,64,0.00,,,0.00,WUHU21023XXSP,2013-07-20 21:47:00,
2013-07-20 16:55:00,77.9,64.7,29.86,ESE,112,0.0,26.0,64,0.00,,,0.00,WUHU21023XXSP,2013-07-20 21:55:00,
2013-07-20 17:07:00,77.7,64.5,29.86,ENE,67,0.0,5.0,64,0.00,,,0.00,WUHU21023XXSP,2013-07-20 22:07:00,
2013-07-20 17:14:00,77.7,64.5,29.86,ENE,67,0.0,5.0,64,0.00,,,0.00,WUHU21023XXSP,2013-07-20 22:14:00,
2013-07-20 17:20:00,77.5,64.4,29.86,ENE,67,4.0,4.0,64,0.00,,,0.00,WUHU21023XXSP,2013-07-20 22:20:00,
2013-07-20 17:27:00,77.5,64.4,29.86,ENE,67,15.0,15.0,64,0.00,,,0.00,WUHU21023XXSP,2013-07-20 22:27:00,
2013-07-20 17:33:00,77.4,64.2,29.86,East,90,0.0,15.0,64,0.00,,,0.00,WUHU21023XXSP,2013-07-20 22:33:00,
2013-07-20 17:40:00,76.8,63.7,29.86,East,90,0.0,0.0,64,0.00,,,0.00,WUHU21023XXSP,2013-07-20 22:40:00,
2013-07-20 17:46:00,76.5,63.3,29.86,ESE,112,4.0,4.0,64,0.00,,,0.00,WUHU21023XXSP,2013-07-20 22:46:00,
2013-07-20 17:51:00,75.9,63.3,29.86,NE,45,0.0,23.0,65,0.00,,,0.00,WUHU21023XXSP,2013-07-20 22:51:00,
2013-07-20 17:58:00,75.4,63.2,29.87,NNE,22,0.0,23.0,66,0.00,,,0.00,WUHU21023XXSP,2013-07-20 22:58:00,
2013-07-20 18:05:00,74.8,62.7,29.87,WNW,292,0.0,5.0,66,0.00,,,0.00,WUHU21023XXSP,2013-07-20 23:05:00,
2013-07-20 18:11:00,74.3,62.2,29.88,NE,45,0.0,5.0,66,0.00,,,0.00,WUHU21023XXSP,2013-07-20 23:11:00,
2013-07-20 18:17:00,74.1,62.5,29.87,East,90,6.0,8.0,67,0.00,,,0.00,WUHU21023XXSP,2013-07-20 23:17:00,
2013-07-20 18:23:00,73.8,62.1,29.88,NNE,22,1.0,6.0,67,0.00,,,0.00,WUHU21023XXSP,2013-07-20 23:23:00,
2013-07-20 18:30:00,73.4,61.8,29.88,ENE,67,3.0,3.0,67,0.00,,,0.00,WUHU21023XXSP,2013-07-20 23:30:00,
2013-07-20 18:36:00,73.0,61.4,29.88,ESE,112,11.0,11.0,67,0.00,,,0.00,WUHU21023XXSP,2013-07-20 23:36:00,
2013-07-20 18:43:00,72.7,61.5,29.88,ESE,112,1.0,11.0,68,0.00,,,0.00,WUHU21023XXSP,2013-07-20 23:43:00,
2013-07-20 18:49:00,72.3,61.2,29.88,ENE,67,2.0,6.0,68,0.00,,,0.00,WUHU21023XXSP,2013-07-20 23:49:00,
2013-07-20 18:55:00,72.3,61.2,29.88,ESE,112,0.0,6.0,68,0.00,,,0.00,WUHU21023XXSP,2013-07-20 23:55:00,
2013-07-20 19:02:00,72.0,60.8,29.88,ESE,112,0.0,5.0,68,0.00,,,0.00,WUHU21023XXSP,2013-07-21 00:02:00,
2013-07-20 19:08:00,71.8,60.2,29.90,ENE,67,0.0,9.0,67,0.00,,,0.00,WUHU21023XXSP,2013-07-21 00:08:00,
2013-07-20 19:15:00,71.4,60.3,29.90,SE,135,0.0,9.0,68,0.00,,,0.00,WUHU21023XXSP,2013-07-21 00:15:00,
2013-07-20 19:21:00,71.2,60.1,29.90,ENE,67,0.0,0.0,68,0.00,,,0.00,WUHU21023XXSP,2013-07-21 00:21:00,
2013-07-20 19:28:00,71.2,60.1,29.90,NE,45,4.0,7.0,68,0.00,,,0.00,WUHU21023XXSP,2013-07-21 00:28:00,
2013-07-20 19:34:00,70.9,59.8,29.90,NE,45,5.0,5.0,68,0.00,,,0.00,WUHU21023XXSP,2013-07-21 00:34:00,
2013-07-20 19:40:00,70.9,59.8,29.90,SSE,157,0.0,5.0,68,0.00,,,0.00,WUHU21023XXSP,2013-07-21 00:40:00,
2013-07-20 19:47:00,70.7,59.6,29.90,ENE,67,0.0,0.0,68,0.00,,,0.00,WUHU21023XXSP,2013-07-21 00:47:00,
2013-07-20 19:53:00,70.5,59.4,29.90,NE,45,0.0,7.0,68,0.00,,,0.00,WUHU21023XXSP,2013-07-21 00:53:00,
2013-07-20 20:00:00,70.3,59.2,29.90,NNE,22,5.0,5.0,68,0.00,,,0.00,WUHU21023XXSP,2013-07-21 01:00:00,
2013-07-20 20:06:00,70.0,58.9,29.90,ENE,67,0.0,5.0,68,0.00,,,0.00,WUHU21023XXSP,2013-07-21 01:06:00,
2013-07-20 20:13:00,69.4,58.8,29.91,ENE,67,0.0,6.0,69,0.00,,,0.00,WUHU21023XXSP,2013-07-21 01:13:00,
2013-07-20 20:19:00,69.1,58.5,29.91,NNE,22,2.0,5.0,69,0.00,,,0.00,WUHU21023XXSP,2013-07-21 01:19:00,
2013-07-20 20:26:00,68.7,58.6,29.92,ENE,67,6.0,6.0,70,0.00,,,0.00,WUHU21023XXSP,2013-07-21 01:26:00,
2013-07-20 20:32:00,68.5,58.4,29.92,NE,45,2.0,6.0,70,0.00,,,0.00,WUHU21023XXSP,2013-07-21 01:32:00,
2013-07-20 20:39:00,68.4,58.2,29.92,NNE,22,5.0,5.0,70,0.00,,,0.00,WUHU21023XXSP,2013-07-21 01:39:00,
2013-07-20 20:45:00,68.2,58.1,29.92,ENE,67,4.0,5.0,70,0.00,,,0.00,WUHU21023XXSP,2013-07-21 01:45:00,
2013-07-20 20:51:00,67.8,58.1,29.92,ESE,112,0.0,5.0,71,0.00,,,0.00,WUHU21023XXSP,2013-07-21 01:51:00,
2013-07-20 20:57:00,67.8,58.1,29.93,ESE,112,0.0,4.0,71,0.00,,,0.00,WUHU21023XXSP,2013-07-21 01:57:00,
2013-07-20 21:04:00,67.8,58.5,29.93,SE,135,0.0,0.0,72,0.00,,,0.00,WUHU21023XXSP,2013-07-21 02:04:00,
2013-07-20 21:10:00,67.6,58.3,29.94,SE,135,0.0,0.0,72,0.00,,,0.00,WUHU21023XXSP,2013-07-21 02:10:00,
2013-07-20 21:17:00,67.3,58.0,29.94,SE,135,0.0,0.0,72,0.00,,,0.00,WUHU21023XXSP,2013-07-21 02:17:00,
2013-07-20 21:23:00,67.3,58.3,29.93,SE,135,0.0,0.0,73,0.00,,,0.00,WUHU21023XXSP,2013-07-21 02:23:00,
2013-07-20 21:30:00,67.1,58.2,29.94,SE,135,0.0,0.0,73,0.00,,,0.00,WUHU21023XXSP,2013-07-21 02:30:00,
2013-07-20 21:36:00,66.9,58.0,29.94,SE,135,0.0,0.0,73,0.00,,,0.00,WUHU21023XXSP,2013-07-21 02:36:00,
2013-07-20 21:42:00,66.7,57.8,29.95,SE,135,0.0,0.0,73,0.00,,,0.00,WUHU21023XXSP,2013-07-21 02:42:00,
2013-07-20 21:49:00,66.6,57.6,29.94,ENE,67,0.0,0.0,73,0.00,,,0.00,WUHU21023XXSP,2013-07-21 02:49:00,
2013-07-20 21:55:00,66.4,57.6,29.95,NE,45,0.0,0.0,73,0.00,,,0.00,WUHU21023XXSP,2013-07-21 02:55:00,
2013-07-20 22:02:00,66.4,57.8,29.94,SE,135,0.0,0.0,74,0.00,,,0.00,WUHU21023XXSP,2013-07-21 03:02:00,
2013-07-20 22:08:00,66.2,57.6,29.94,ENE,67,0.0,0.0,74,0.00,,,0.00,WUHU21023XXSP,2013-07-21 03:08:00,
2013-07-20 22:15:00,66.0,57.5,29.93,ENE,67,0.0,0.0,74,0.00,,,0.00,WUHU21023XXSP,2013-07-21 03:15:00,
2013-07-20 22:21:00,66.0,57.5,29.94,NE,45,0.0,3.0,74,0.00,,,0.00,WUHU21023XXSP,2013-07-21 03:21:00,
2013-07-20 22:27:00,66.0,57.5,29.94,ENE,67,0.0,3.0,74,0.00,,,0.00,WUHU21023XXSP,2013-07-21 03:27:00,
2013-07-20 22:34:00,66.0,57.5,29.93,ESE,112,0.0,0.0,74,0.00,,,0.00,WUHU21023XXSP,2013-07-21 03:34:00,
2013-07-20 22:41:00,65.8,57.3,29.94,ESE,112,0.0,0.0,74,0.00,,,0.00,WUHU21023XXSP,2013-07-21 03:41:00,
2013-07-20 22:47:00,65.8,57.3,29.94,ESE,112,0.0,0.0,74,0.00,,,0.00,WUHU21023XXSP,2013-07-21 03:47:00,
2013-07-20 22:53:00,65.7,57.1,29.94,SE,135,0.0,1.0,74,0.00,,,0.00,WUHU21023XXSP,2013-07-21 03:53:00,
2013-07-20 23:00:00,65.5,56.9,29.94,ENE,67,0.0,0.0,74,0.00,,,0.00,WUHU21023XXSP,2013-07-21 04:00:00,
2013-07-20 23:02:00,65.5,56.9,29.94,SE,135,0.0,0.0,74,0.00,,,0.00,WUHU21023XXSP,2013-07-21 04:02:00,
2013-07-20 23:04:00,65.5,56.9,29.94,SE,135,0.0,0.0,74,0.00,,,0.00,WUHU21023XXSP,2013-07-21 04:04:00,
2013-07-20 23:10:00,65.3,57.1,29.94,ENE,67,0.0,0.0,75,0.00,,,0.00,WUHU21023XXSP,2013-07-21 04:10:00,
2013-07-20 23:15:00,65.3,57.1,29.93,ENE,67,0.0,0.0,75,0.00,,,0.00,WUHU21023XXSP,2013-07-21 04:15:00,
2013-07-20 23:21:00,65.1,57.0,29.93,SE,135,0.0,0.0,75,0.00,,,0.00,WUHU21023XXSP,2013-07-21 04:21:00,
2013-07-20 23:27:00,65.1,57.0,29.93,ESE,112,0.0,0.0,75,0.00,,,0.00,WUHU21023XXSP,2013-07-21 04:27:00,
2013-07-20 23:30:00,64.9,56.8,29.93,ESE,112,0.0,0.0,75,0.00,,,0.00,WUHU21023XXSP,2013-07-21 04:30:00,
2013-07-20 23:36:00,64.9,56.8,29.93,ESE,112,0.0,0.0,75,0.00,,,0.00,WUHU21023XXSP,2013-07-21 04:36:00,
2013-07-20 23:42:00,64.8,56.6,29.94,NE,45,0.0,0.0,75,0.00,,,0.00,WUHU21023XXSP,2013-07-21 04:42:00,
2013-07-20 23:49:00,64.8,57.0,29.94,ENE,67,0.0,0.0,75,0.00,,,0.00,WUHU21023XXSP,2013-07-21 04:49:00,
2013-07-20 23:55:00,64.6,56.5,29.94,ENE,67,0.0,0.0,75,0.00,,,0.00,WUHU21023XXSP,2013-07-21 04:55:00,